Pericoe, Australia

7:29 AM AEST on April 27, 2017 (GMT +1000)
Eden | | Change Station

Elev 206 ft 37.06 °S, 149.90 °E | Updated 1 second ago

Partly Cloudy
Partly Cloudy
53.8 °F
Feels Like 53.8 °F
N
13.5
Wind Variable Wind from SSW

Today
High -- | Low -- °F
--% Chance of Precip.
Yesterday
High -- | Low -- °F
Precip. -- in
Pressure 29.95 in
Visibility 6.2 miles
Clouds Scattered Clouds 4800 ft
Dew Point 42 °F
Humidity 65%
Rainfall 0.05 in
Snow Depth Not available.
6:37 AM 5:20 PM
New Moon, 0% visible
METAR YMER 262000Z AUTO 23007KT 9999 // SCT048 11/04 Q1014
Pressure 29.95 in
Visibility 6.2 miles
Clouds Scattered Clouds 4800 ft
Dew Point 42 °F
Humidity 65%
Rainfall 0.05 in
Snow Depth Not available.
6:37 AM 5:20 PM
New Moon, 0% visible
METAR YMER 262000Z AUTO 23007KT 9999 // SCT048 11/04 Q1014

Get Severe Weather Alerts

Thanks for signing up!

Be on the lookout for a verification email in your inbox.

You'll start receiving the daily forecast at 8 AM.

×

10-Day Weather Forecast

×

Almanac

Astronomy

Apr. 27, 2017 Rise Set
Actual Time
Civil Twilight
Nautical Twilight
Astronomical Twilight
Moon
Length of Visible Light
Length of Day
Tomorrow will be .
, % of the Moon is Illuminated

Today's Extremes

Country Highs Country Lows

Community

WunderPhotos

WunderBlog® & News

Nearby

Air Quality

  Air Quality AQ Index Pollutant
Not available.

Snow Depth

Station Depth Elevation

Earthquake Activity

City Distance Mag. Time & Date
Minimum magnitude displayed is 2.5.

Coastal Water Temperatures

Place Temperature

Stations

Nearby Weather Stations

Station Location Temp. Windchill Dew Point Humidity Wind Precip. Elev Updated Type